Time;durP1;ratioP1;P1;durP2;ratioP2;P2;SDS_P1;SDS_P2;PMS_P1;PMS_P2;Temp;Humidity;BMP_temperature;BMP_pressure;BME280_temperature;BME280_humidity;BME280_pressure;Samples;Min_cycle;Max_cycle;Signal;HPM_P1;HPM_P2
2020/12/24 00:00:53;;;;;;;12.43;6.35;;;;;;;17.84;59.79;100565.53;4811026;29;20036;-79
2020/12/24 00:03:18;;;;;;;11.70;6.55;;;;;;;17.84;59.72;100565.53;4837583;29;20426;-81
2020/12/24 00:05:44;;;;;;;9.13;5.65;;;;;;;17.84;59.85;100562.94;4836029;29;20180;-80
2020/12/24 00:08:09;;;;;;;11.10;6.15;;;;;;;17.83;59.74;100564.69;4839432;29;20034;-80
2020/12/24 00:10:38;;;;;;;11.48;6.10;;;;;;;17.84;59.68;100557.72;4834966;29;20039;-81
2020/12/24 00:13:03;;;;;;;13.77;6.07;;;;;;;17.82;59.69;100560.34;4850815;29;20040;-80
2020/12/24 00:15:29;;;;;;;12.50;5.90;;;;;;;17.83;59.53;100563.81;4822120;29;20050;-81
2020/12/24 00:17:54;;;;;;;9.60;5.13;;;;;;;17.83;59.61;100558.59;4855724;29;20042;-81
2020/12/24 00:20:19;;;;;;;10.13;5.53;;;;;;;17.82;59.74;100557.75;4830310;29;20030;-81
2020/12/24 00:22:45;;;;;;;11.15;5.57;;;;;;;17.81;59.82;100558.59;4824891;29;20631;-81
2020/12/24 00:25:10;;;;;;;10.30;5.45;;;;;;;17.81;59.39;100556.00;4822343;29;20045;-80
2020/12/24 00:27:38;;;;;;;9.88;5.43;;;;;;;17.81;59.64;100550.81;4852066;29;20030;-81
2020/12/24 00:30:04;;;;;;;8.65;4.95;;;;;;;17.81;59.51;100549.91;4835672;29;20034;-79
2020/12/24 00:32:30;;;;;;;10.60;5.68;;;;;;;17.80;59.42;100549.06;4825979;29;20085;-79
2020/12/24 00:34:55;;;;;;;9.30;5.47;;;;;;;17.80;59.14;100549.06;4839841;29;20121;-80
2020/12/24 00:37:20;;;;;;;9.07;5.03;;;;;;;17.80;59.54;100538.66;4840168;29;20042;-82
2020/12/24 00:39:46;;;;;;;10.30;5.13;;;;;;;17.82;59.48;100549.09;4824134;29;20110;-81
2020/12/24 00:42:11;;;;;;;7.55;4.43;;;;;;;17.79;59.32;100543.88;4843528;29;20114;-82
2020/12/24 00:44:39;;;;;;;9.60;4.85;;;;;;;17.81;59.43;100547.31;4841142;29;20470;-82
2020/12/24 00:47:04;;;;;;;8.93;4.78;;;;;;;17.79;59.41;100542.16;4813999;29;20034;-81
2020/12/24 00:49:30;;;;;;;7.78;4.90;;;;;;;17.79;58.86;100549.06;4823612;29;20034;-81
2020/12/24 00:52:00;;;;;;;9.10;4.85;;;;;;;17.78;59.45;100545.63;4825699;29;20063;-81
2020/12/24 00:54:25;;;;;;;10.93;5.10;;;;;;;17.79;59.46;100549.06;4829207;29;20041;-79
2020/12/24 00:56:53;;;;;;;8.63;4.90;;;;;;;17.79;59.30;100546.47;4825381;29;20093;-79
2020/12/24 00:59:18;;;;;;;8.35;4.32;;;;;;;17.78;59.29;100545.63;4822610;29;20045;-79
2020/12/24 01:01:44;;;;;;;8.38;4.43;;;;;;;17.79;59.12;100549.06;4799967;29;20553;-79
2020/12/24 01:04:09;;;;;;;8.73;4.32;;;;;;;17.77;59.35;100549.13;4810617;29;20409;-81
2020/12/24 01:06:38;;;;;;;8.07;4.65;;;;;;;17.79;59.19;100554.28;4807820;29;20176;-81
2020/12/24 01:09:03;;;;;;;8.38;4.28;;;;;;;17.79;59.19;100557.78;4854451;29;20030;-82
2020/12/24 01:11:30;;;;;;;8.23;4.50;;;;;;;17.78;58.95;100565.59;4831261;29;20113;-82
2020/12/24 01:13:56;;;;;;;10.43;4.80;;;;;;;17.78;59.32;100566.44;4839894;29;20030;-81
2020/12/24 01:16:22;;;;;;;9.10;4.25;;;;;;;17.77;59.19;100567.34;4832179;29;20039;-81
2020/12/24 01:18:47;;;;;;;9.82;4.20;;;;;;;17.77;58.91;100580.34;4836996;29;20462;-82
2020/12/24 01:21:13;;;;;;;6.88;4.28;;;;;;;17.77;58.99;100582.06;4806049;29;20038;-82
2020/12/24 01:23:38;;;;;;;8.27;4.18;;;;;;;17.77;58.92;100589.88;4850566;29;20501;-81
2020/12/24 01:26:06;;;;;;;7.25;4.10;;;;;;;17.77;58.90;100601.19;4839187;29;20035;-82
2020/12/24 01:28:32;;;;;;;6.20;3.83;;;;;;;17.78;59.30;100604.63;4825292;29;20026;-81
2020/12/24 01:30:57;;;;;;;7.45;4.15;;;;;;;17.78;59.03;100615.03;4820745;29;20056;-81
2020/12/24 01:33:28;;;;;;;7.40;3.67;;;;;;;17.77;58.81;100601.19;4825936;29;20037;-82
2020/12/24 01:35:53;;;;;;;5.97;4.00;;;;;;;17.76;58.87;100609.00;4839397;29;20040;-81
2020/12/24 01:38:19;;;;;;;8.90;4.22;;;;;;;17.75;59.20;100615.94;4848460;29;20101;-82
2020/12/24 01:40:46;;;;;;;8.45;4.55;;;;;;;17.76;58.65;100611.59;4815316;29;20062;-82
2020/12/24 01:43:11;;;;;;;8.35;3.65;;;;;;;17.75;58.68;100618.56;4857085;29;20042;-82
2020/12/24 01:45:37;;;;;;;6.78;3.60;;;;;;;17.75;58.54;100612.50;4860457;29;20141;-82
2020/12/24 01:48:03;;;;;;;7.88;3.97;;;;;;;17.73;58.70;100615.13;4859150;29;20030;-81
2020/12/24 01:50:28;;;;;;;6.75;3.58;;;;;;;17.74;58.59;100615.97;4844286;29;20030;-82
2020/12/24 01:52:56;;;;;;;6.32;3.78;;;;;;;17.72;58.69;100625.53;4842389;29;20098;-81
2020/12/24 01:55:22;;;;;;;6.68;3.70;;;;;;;17.71;58.63;100637.69;4849218;29;20026;-81
2020/12/24 01:57:50;;;;;;;6.70;3.63;;;;;;;17.69;58.49;100648.13;4844447;29;20146;-81
2020/12/24 02:00:17;;;;;;;5.65;3.58;;;;;;;17.69;58.56;100645.50;4855887;29;20030;-82
2020/12/24 02:02:42;;;;;;;5.38;3.25;;;;;;;17.67;58.66;100649.03;4854825;29;20066;-82
2020/12/24 02:05:08;;;;;;;6.30;3.35;;;;;;;17.67;58.53;100643.81;4854580;29;20031;-82
2020/12/24 02:07:33;;;;;;;5.60;3.30;;;;;;;17.66;58.40;100657.72;4847491;29;20521;-82
2020/12/24 02:09:59;;;;;;;4.78;2.97;;;;;;;17.65;58.62;100661.19;4847695;29;20054;-82
2020/12/24 02:12:24;;;;;;;5.80;3.30;;;;;;;17.64;58.33;100659.47;4838339;29;20087;-79
2020/12/24 02:14:50;;;;;;;5.20;3.38;;;;;;;17.62;58.41;100663.84;4826739;29;20397;-80
2020/12/24 02:17:15;;;;;;;5.93;2.92;;;;;;;17.62;58.29;100672.50;4811412;29;20030;-79
2020/12/24 02:19:40;;;;;;;5.03;3.00;;;;;;;17.63;58.59;100670.75;4840373;29;20087;-80
2020/12/24 02:22:07;;;;;;;5.43;3.08;;;;;;;17.61;58.34;100669.91;4825712;29;20042;-79
2020/12/24 02:24:32;;;;;;;6.07;2.97;;;;;;;17.60;58.24;100682.06;4842727;29;20040;-82
2020/12/24 02:26:58;;;;;;;6.57;3.53;;;;;;;17.59;58.27;100688.13;4867638;29;20046;-82
2020/12/24 02:29:24;;;;;;;4.68;2.50;;;;;;;17.59;58.21;100684.69;4864620;29;20037;-82
2020/12/24 02:31:49;;;;;;;4.57;2.70;;;;;;;17.57;58.27;100682.13;4866463;29;20030;-82
2020/12/24 02:34:15;;;;;;;5.22;2.70;;;;;;;17.56;58.14;100689.94;4832931;29;20057;-82
2020/12/24 02:36:41;;;;;;;4.07;2.50;;;;;;;17.56;58.31;100687.31;4853835;29;20037;-82
2020/12/24 02:39:07;;;;;;;4.40;2.55;;;;;;;17.56;58.29;100696.00;4836134;29;20032;-82
2020/12/24 02:41:32;;;;;;;4.72;2.80;;;;;;;17.56;58.17;100700.34;4850484;29;20039;-82
2020/12/24 02:43:58;;;;;;;4.22;2.67;;;;;;;17.55;58.31;100703.81;4821685;29;20082;-82
2020/12/24 02:46:23;;;;;;;4.20;2.70;;;;;;;17.55;57.99;100706.41;4835353;29;20059;-82
2020/12/24 02:48:48;;;;;;;4.30;2.50;;;;;;;17.53;58.26;100709.03;4836190;29;20093;-83
2020/12/24 02:51:14;;;;;;;4.43;2.50;;;;;;;17.54;58.23;100721.16;4868301;29;20026;-82
2020/12/24 02:53:40;;;;;;;4.18;2.42;;;;;;;17.52;58.29;100719.47;4849815;29;20039;-82
2020/12/24 02:56:05;;;;;;;3.72;2.20;;;;;;;17.52;58.09;100725.50;4850592;29;20026;-82
2020/12/24 02:58:30;;;;;;;4.03;2.25;;;;;;;17.51;58.14;100729.00;4852909;29;20053;-82
2020/12/24 03:00:56;;;;;;;3.63;2.20;;;;;;;17.50;58.02;100729.03;4868481;29;20041;-82
2020/12/24 03:03:25;;;;;;;4.88;2.67;;;;;;;17.48;57.57;100736.84;4853155;29;20034;-82
2020/12/24 03:05:51;;;;;;;4.18;2.30;;;;;;;17.48;58.30;100736.84;4851845;29;20021;-82
2020/12/24 03:08:16;;;;;;;4.30;2.42;;;;;;;17.51;57.44;100746.34;4853087;29;20050;-83
2020/12/24 03:13:20;;;;;;;3.95;2.20;;;;;;;17.45;57.83;100757.69;5326980;24;20086;-82
2020/12/24 03:15:45;;;;;;;3.95;2.00;;;;;;;17.45;57.81;100758.53;4867733;29;20014;-82
2020/12/24 03:18:11;;;;;;;3.38;1.90;;;;;;;17.45;57.73;100765.50;4842033;29;20028;-82
2020/12/24 03:20:39;;;;;;;4.22;1.98;;;;;;;17.45;58.11;100771.56;4869315;29;20037;-82
2020/12/24 03:23:08;;;;;;;4.38;2.33;;;;;;;17.45;58.14;100766.34;4862932;29;20046;-82
2020/12/24 03:25:36;;;;;;;4.13;2.10;;;;;;;17.44;57.83;100774.16;4860059;29;20033;-82
2020/12/24 03:28:21;;;;;;;3.00;1.73;;;;;;;17.42;57.50;100774.19;4870951;29;20041;-82
2020/12/24 03:59:14;;;;;;;3.55;2.00;;;;;;;17.35;57.49;100828.88;4948165;24;20056;-82
2020/12/24 04:01:39;;;;;;;3.45;1.70;;;;;;;17.34;57.15;100828.03;4892765;29;20045;-82
2020/12/24 04:04:08;;;;;;;2.85;1.40;;;;;;;17.34;56.95;100832.38;4869845;29;20033;-82
2020/12/24 04:06:36;;;;;;;3.78;1.75;;;;;;;17.33;57.15;100828.03;4869655;29;20073;-82
2020/12/24 04:12:24;;;;;;;2.80;1.60;;;;;;;17.35;57.13;100836.69;4889151;29;20029;-82
2020/12/24 04:14:49;;;;;;;2.40;1.40;;;;;;;17.33;56.99;100838.44;4855694;29;20017;-82
2020/12/24 04:17:15;;;;;;;2.35;1.40;;;;;;;17.33;57.38;100846.22;4888102;29;20039;-82
2020/12/24 04:27:29;;;;;;;2.70;1.60;;;;;;;17.33;56.85;100860.09;5793350;23;20017;-81
2020/12/24 04:29:55;;;;;;;2.05;1.33;;;;;;;17.29;57.17;100858.41;4862532;29;20024;-81
2020/12/24 04:32:21;;;;;;;2.80;1.38;;;;;;;17.31;56.85;100871.38;4884221;29;20045;-80
2020/12/24 04:34:46;;;;;;;2.00;1.30;;;;;;;17.30;57.01;100859.28;4850297;29;20057;-81
2020/12/24 04:37:12;;;;;;;3.20;1.33;;;;;;;17.28;57.16;100880.09;4867834;29;20033;-80
2020/12/24 04:39:37;;;;;;;2.60;1.50;;;;;;;17.28;56.99;100883.53;4883684;29;20158;-81
2020/12/24 04:42:04;;;;;;;2.55;1.33;;;;;;;17.28;57.05;100893.09;4852932;29;20041;-81
2020/12/24 04:44:30;;;;;;;1.85;1.05;;;;;;;17.28;56.96;100899.16;4849754;29;20036;-81
2020/12/24 04:46:57;;;;;;;2.78;1.50;;;;;;;17.27;56.82;100907.84;4850161;29;20014;-81
2020/12/24 04:49:27;;;;;;;1.80;1.30;;;;;;;17.25;56.83;100911.34;4851718;29;20037;-80
2020/12/24 04:51:53;;;;;;;2.22;1.30;;;;;;;17.27;56.98;100918.25;4867761;29;20030;-81
2020/12/24 04:54:19;;;;;;;2.65;1.40;;;;;;;17.26;56.64;100916.50;4876768;29;20041;-81
2020/12/24 04:56:44;;;;;;;2.28;1.35;;;;;;;17.28;57.11;100921.69;4866306;29;20034;-81
2020/12/24 04:59:10;;;;;;;2.92;1.50;;;;;;;17.26;56.81;100929.50;4865362;29;20029;-80
2020/12/24 05:01:40;;;;;;;2.70;1.10;;;;;;;17.27;56.77;100933.00;4874624;29;20018;-81
2020/12/24 05:04:05;;;;;;;2.25;1.20;;;;;;;17.25;56.95;100929.53;4858689;29;20033;-81
2020/12/24 05:06:31;;;;;;;2.03;1.30;;;;;;;17.27;56.87;100928.66;4850950;29;20029;-81
2020/12/24 05:08:58;;;;;;;1.77;1.05;;;;;;;17.23;56.61;100934.75;4843632;29;20153;-81
2020/12/24 05:11:33;;;;;;;1.90;1.13;;;;;;;17.24;56.91;100944.25;4856211;29;20033;-80
2020/12/24 05:14:17;;;;;;;3.38;1.40;;;;;;;17.21;56.51;100948.63;4852187;29;20029;-80
2020/12/24 05:17:02;;;;;;;2.25;1.15;;;;;;;17.25;57.03;100960.75;4857962;29;20025;-80
2020/12/24 05:19:36;;;;;;;2.00;1.20;;;;;;;17.25;56.87;100961.59;4867859;29;20029;-80
2020/12/24 05:22:21;;;;;;;;;;;;;;;17.24;56.57;100954.66;4860697;29;20025;-81
2020/12/24 05:24:47;;;;;;;2.45;1.17;;;;;;;17.24;56.77;100949.44;4840987;29;19943;-80
2020/12/24 05:27:21;;;;;;;2.42;1.05;;;;;;;17.22;56.55;100948.63;4848034;29;20037;-80
2020/12/24 05:29:51;;;;;;;2.30;1.10;;;;;;;17.22;56.53;100951.22;4858617;29;20033;-81
2020/12/24 05:32:27;;;;;;;1.55;1.08;;;;;;;17.21;56.60;100957.28;4874519;29;20569;-80
2020/12/24 05:35:04;;;;;;;1.63;0.90;;;;;;;17.24;56.45;100966.81;4875037;29;20048;-81
2020/12/24 05:37:31;;;;;;;1.95;1.05;;;;;;;17.24;56.45;100972.00;4873371;29;20044;-81
2020/12/24 05:39:56;;;;;;;1.70;1.10;;;;;;;17.22;56.67;100976.34;4861664;29;20041;-81
2020/12/24 05:42:24;;;;;;;1.70;1.10;;;;;;;17.21;56.51;100975.50;4862336;29;20026;-81
2020/12/24 05:44:50;;;;;;;2.00;1.05;;;;;;;17.23;56.56;100981.56;4847001;29;20040;-81
2020/12/24 05:47:26;;;;;;;2.40;1.10;;;;;;;17.22;56.45;100994.56;4834299;29;20030;-79
2020/12/24 05:49:52;;;;;;;1.67;0.93;;;;;;;17.20;56.48;100992.00;4853581;29;20545;-78
2020/12/24 05:52:17;;;;;;;1.83;1.00;;;;;;;17.21;56.56;101001.50;4856118;29;20038;-78
2020/12/24 05:54:44;;;;;;;1.30;0.88;;;;;;;17.20;56.30;101005.00;4828194;29;20370;-79
2020/12/24 05:57:11;;;;;;;2.13;1.00;;;;;;;17.20;56.30;101011.91;4839737;29;20488;-79
2020/12/24 05:59:37;;;;;;;1.30;0.80;;;;;;;17.19;56.78;101018.00;4842314;29;20516;-79
2020/12/24 06:02:05;;;;;;;1.65;0.95;;;;;;;17.20;56.46;101024.91;4826022;29;20045;-78
2020/12/24 06:04:46;;;;;;;1.83;0.90;;;;;;;17.20;56.73;101028.41;4843305;29;20029;-79
2020/12/24 06:07:28;;;;;;;2.08;1.10;;;;;;;17.21;56.58;101026.66;4837667;29;20036;-78
2020/12/24 06:09:53;;;;;;;1.15;0.85;;;;;;;17.19;56.16;101042.25;4828781;29;20383;-79
2020/12/24 06:12:20;;;;;;;1.27;0.70;;;;;;;17.20;56.55;101046.59;4813755;29;20097;-78
2020/12/24 06:15:04;;;;;;;1.42;0.80;;;;;;;17.20;56.28;101048.31;4827148;29;20168;-79
2020/12/24 06:17:30;;;;;;;2.03;0.90;;;;;;;17.18;56.58;101057.84;4814698;29;20101;-79
2020/12/24 06:19:56;;;;;;;1.48;0.90;;;;;;;17.20;56.47;101056.13;4806291;29;20044;-79
2020/12/24 06:22:24;;;;;;;1.83;1.00;;;;;;;17.19;56.37;101067.41;4847588;29;20041;-78
2020/12/24 06:24:55;;;;;;;1.92;0.90;;;;;;;17.18;55.91;101069.16;4844453;29;20033;-79
2020/12/24 06:27:24;;;;;;;1.83;0.82;;;;;;;17.18;56.59;101070.84;4805491;29;20121;-78
2020/12/24 06:29:55;;;;;;;2.05;0.70;;;;;;;17.17;56.16;101069.16;4856009;29;20178;-79
2020/12/24 06:32:22;;;;;;;2.95;0.90;;;;;;;17.16;56.28;101070.88;4841375;29;20164;-79
2020/12/24 06:34:47;;;;;;;2.58;1.00;;;;;;;17.16;56.48;101075.19;4801283;29;20030;-79
2020/12/24 06:37:18;;;;;;;1.23;0.90;;;;;;;17.15;56.16;101086.47;4813440;29;20101;-79
2020/12/24 06:39:53;;;;;;;1.80;0.75;;;;;;;17.16;56.32;101089.09;4854502;29;20042;-78
2020/12/24 06:42:44;;;;;;;1.55;0.90;;;;;;;17.17;56.32;101087.34;4856501;29;20041;-78
2020/12/24 06:45:30;;;;;;;2.17;0.80;;;;;;;17.16;56.56;101094.28;4845911;29;20033;-79
2020/12/24 06:48:24;;;;;;;1.63;0.70;;;;;;;17.16;56.54;101094.28;4864577;29;20370;-79
2020/12/24 06:54:56;;;;;;;2.72;1.30;;;;;;;17.22;56.41;101109.88;4860638;29;20116;-84
2020/12/24 07:02:33;;;;;;;5.80;1.77;;;;;;;17.37;57.48;101110.66;5166545;24;20053;-80
2020/12/24 07:04:59;;;;;;;3.88;1.50;;;;;;;17.41;57.22;101102.84;4821919;29;20055;-80
2020/12/24 07:07:45;;;;;;;5.28;1.30;;;;;;;17.43;57.52;101095.91;4823413;29;20033;-80
2020/12/24 07:10:45;;;;;;;4.18;1.60;;;;;;;17.47;57.34;101109.75;4864906;29;20032;-80
2020/12/24 07:13:40;;;;;;;5.07;1.30;;;;;;;17.48;57.39;101148.78;4814790;29;20037;-80
2020/12/24 07:16:07;;;;;;;5.63;1.40;;;;;;;17.50;57.41;101145.31;4824227;29;20393;-80
2020/12/24 07:21:24;;;;;;;4.35;1.48;;;;;;;17.50;57.40;101161.78;4861611;29;20418;-80
2020/12/24 07:23:52;;;;;;;3.65;1.30;;;;;;;17.51;57.50;101158.31;4844421;29;20052;-81
2020/12/24 07:26:18;;;;;;;3.08;1.30;;;;;;;17.51;57.93;101154.81;4833950;29;20083;-80
2020/12/24 07:28:53;;;;;;;2.45;1.08;;;;;;;17.51;57.64;101158.31;4843732;29;20031;-81
2020/12/24 07:31:49;;;;;;;3.25;1.20;;;;;;;17.52;57.73;101154.81;4844247;29;20544;-81
2020/12/24 07:34:14;;;;;;;2.45;1.20;;;;;;;17.52;57.65;101152.22;4817355;29;20041;-80
2020/12/24 07:36:44;;;;;;;2.17;1.33;;;;;;;17.51;57.59;101153.13;4828341;29;20030;-80
2020/12/24 07:39:10;;;;;;;2.35;1.17;;;;;;;17.54;57.72;101155.69;4830048;29;20497;-80
2020/12/24 07:41:39;;;;;;;2.95;1.10;;;;;;;17.52;57.59;101157.44;4832557;29;20470;-80
2020/12/24 07:44:12;;;;;;;2.15;1.10;;;;;;;17.55;57.58;101177.38;4831075;29;20103;-80
2020/12/24 07:46:37;;;;;;;1.98;1.10;;;;;;;17.54;57.62;101175.66;4837533;29;20490;-81
2020/12/24 07:49:04;;;;;;;3.50;0.95;;;;;;;17.56;57.51;101187.78;4834938;29;20034;-80
2020/12/24 07:51:30;;;;;;;1.95;1.10;;;;;;;17.54;57.44;101196.47;4821596;29;20038;-81
2020/12/24 07:54:12;;;;;;;2.13;0.88;;;;;;;17.56;57.73;101215.53;4821142;29;20061;-80
2020/12/24 07:56:44;;;;;;;1.95;0.90;;;;;;;17.57;57.56;101231.16;4845061;29;20117;-80
2020/12/24 07:59:10;;;;;;;3.58;0.90;;;;;;;17.57;57.64;101225.97;4837630;29;20023;-80
2020/12/24 08:04:55;;;;;;;2.70;0.93;;;;;;;17.57;57.89;101222.47;5395488;24;20181;-82
2020/12/24 08:07:21;;;;;;;4.88;1.20;;;;;;;17.58;57.64;101229.41;4856471;29;20029;-81
2020/12/24 08:09:46;;;;;;;2.25;1.10;;;;;;;17.58;57.61;101240.69;4869610;29;20048;-81
2020/12/24 08:12:20;;;;;;;2.60;1.05;;;;;;;17.60;57.52;101243.28;4840458;29;20033;-82
2020/12/24 08:14:45;;;;;;;;;;;;;;;17.60;57.39;101246.75;4878184;29;20036;-81
2020/12/24 08:17:36;;;;;;;1.80;0.90;;;;;;;17.60;57.56;101253.69;4845097;29;19919;-81
2020/12/24 08:20:07;;;;;;;2.05;0.80;;;;;;;17.61;57.47;101260.63;4889725;29;20047;-81
2020/12/24 08:23:25;;;;;;;1.40;0.77;;;;;;;17.60;57.48;101257.16;4878621;29;20017;-82
2020/12/24 08:29:15;;;;;;;1.33;0.70;;;;;;;17.62;57.46;101262.38;4870513;29;20072;-82
2020/12/24 08:38:46;;;;;;;1.80;0.98;;;;;;;17.63;57.50;101269.28;5868215;24;20033;31
2020/12/24 08:47:44;;;;;;;2.53;0.80;;;;;;;17.69;57.68;101288.34;4909221;23;20047;-82
2020/12/24 09:32:12;;;;;;;1.55;0.60;;;;;;;17.87;56.56;101362.09;4788380;30;20057;-83
2020/12/24 12:09:32;;;;;;;2.63;0.85;;;;;;;18.29;55.48;101482.69;5233569;24;20086;-81
2020/12/24 12:11:59;;;;;;;4.50;1.00;;;;;;;18.23;55.78;101480.09;4829600;29;20039;-80
2020/12/24 12:14:27;;;;;;;2.13;0.90;;;;;;;18.18;56.06;101489.66;4816538;29;20571;-80
2020/12/24 12:16:52;;;;;;;2.10;0.80;;;;;;;18.15;56.01;101482.72;4829269;29;20075;-81
2020/12/24 12:19:18;;;;;;;2.17;0.80;;;;;;;18.14;56.07;101486.22;4834869;29;20030;-80
2020/12/24 12:21:50;;;;;;;4.10;1.02;;;;;;;18.11;55.99;101485.34;4829586;29;20072;-81
2020/12/24 12:24:16;;;;;;;3.13;0.90;;;;;;;18.07;56.07;101487.94;4826068;29;20049;-81
2020/12/24 12:26:44;;;;;;;3.25;0.90;;;;;;;18.06;55.91;101495.75;4836317;29;20042;-82
2020/12/24 12:29:10;;;;;;;5.25;0.82;;;;;;;18.04;56.11;101516.59;4841458;29;20023;-79
2020/12/24 12:31:40;;;;;;;2.55;0.85;;;;;;;17.99;56.22;101513.13;4831838;29;20030;-81
2020/12/24 12:34:09;;;;;;;2.25;0.90;;;;;;;17.96;56.41;101507.03;4832462;29;20030;-77
2020/12/24 12:36:34;;;;;;;2.20;0.82;;;;;;;17.96;56.39;101510.50;4834794;29;20114;-78
2020/12/24 12:39:00;;;;;;;2.97;0.90;;;;;;;17.96;56.51;101501.84;4818990;29;20137;-78
2020/12/24 12:41:25;;;;;;;7.25;1.08;;;;;;;17.96;56.30;101501.84;4806812;29;20068;-78
2020/12/24 12:44:19;;;;;;;5.00;1.10;;;;;;;17.96;56.29;101501.84;4809037;29;20482;-78
2020/12/24 12:46:50;;;;;;;3.23;1.00;;;;;;;17.95;56.50;101502.72;4822742;29;20573;-77
2020/12/24 12:49:16;;;;;;;7.95;1.10;;;;;;;17.93;56.50;101499.25;4813515;29;20613;-79
2020/12/24 12:51:49;;;;;;;2.88;0.90;;;;;;;17.91;56.30;101498.38;4822732;29;20049;-79
2020/12/24 12:54:22;;;;;;;2.67;0.80;;;;;;;17.93;56.20;101509.66;4803801;29;20034;-78
2020/12/24 12:56:50;;;;;;;3.05;0.80;;;;;;;17.93;56.09;101522.69;4796271;29;20119;-79
2020/12/24 12:59:16;;;;;;;1.92;0.90;;;;;;;17.93;56.28;101517.47;4818264;29;20058;-79
2020/12/24 13:01:47;;;;;;;4.07;0.95;;;;;;;17.91;55.99;101519.19;4806177;29;20127;-78
2020/12/24 13:04:25;;;;;;;2.72;0.98;;;;;;;17.89;56.32;101512.25;4813122;29;20034;-79
2020/12/24 13:06:51;;;;;;;2.13;0.85;;;;;;;17.92;56.35;101519.22;4822043;29;20041;-78
2020/12/24 13:09:22;;;;;;;3.03;0.80;;;;;;;17.91;56.01;101509.66;4820034;29;20026;-78
2020/12/24 13:11:48;;;;;;;2.10;0.80;;;;;;;17.91;56.05;101516.59;4846581;29;20389;-78
2020/12/24 13:14:19;;;;;;;2.38;1.00;;;;;;;17.87;55.92;101511.38;4833793;29;20477;-78
2020/12/24 13:16:51;;;;;;;1.83;0.70;;;;;;;17.91;56.15;101514.00;4830398;29;20077;-80
2020/12/24 13:19:40;;;;;;;3.65;0.93;;;;;;;17.86;56.20;101530.47;4832987;29;20512;-79
2020/12/24 13:29:12;;;;;;;3.30;0.88;;;;;;;17.83;56.45;101532.22;4825381;29;20040;-78
2020/12/24 13:31:40;;;;;;;3.03;0.88;;;;;;;17.84;56.10;101546.97;4855415;29;20053;-80
2020/12/24 13:34:07;;;;;;;3.58;1.00;;;;;;;17.82;56.17;101559.13;4858099;29;20473;-78
2020/12/24 13:36:51;;;;;;;3.28;0.93;;;;;;;17.81;56.14;101567.75;4855819;29;20037;-80
2020/12/24 13:39:17;;;;;;;3.20;0.80;;;;;;;17.80;56.33;101556.47;4850120;29;20129;-78
2020/12/24 13:41:43;;;;;;;2.33;0.88;;;;;;;17.82;56.32;101553.91;4851493;29;20041;-80
2020/12/24 13:44:08;;;;;;;2.42;1.08;;;;;;;17.79;56.48;101551.25;4854841;29;20037;-79
2020/12/24 13:46:47;;;;;;;3.50;0.70;;;;;;;17.80;56.17;101550.41;4833431;29;20079;-81
2020/12/24 14:38:03;;;;;;;2.72;0.90;;;;;;;17.74;56.19;101655.38;4891181;23;20061;-80
2020/12/24 14:49:46;;;;;;;5.22;0.70;;;;;;;17.72;56.15;101664.91;4868437;29;20061;-81
2020/12/24 15:02:38;;;;;;;2.28;0.73;;;;;;;17.76;56.18;101655.41;4775739;30;20039;-77
2020/12/24 15:05:04;;;;;;;2.78;0.70;;;;;;;17.78;56.40;101651.06;4838745;29;20065;-77
2020/12/24 15:07:29;;;;;;;3.10;0.90;;;;;;;17.74;56.28;101660.59;4842834;29;20446;-77
2020/12/24 15:09:54;;;;;;;4.38;0.88;;;;;;;17.69;56.38;101663.19;4816837;29;20049;-77
2020/12/24 15:12:20;;;;;;;1.40;0.70;;;;;;;17.67;56.27;101661.44;4842166;29;20042;-77
2020/12/24 15:14:45;;;;;;;5.00;0.80;;;;;;;17.66;56.30;101664.94;4826643;29;20073;-77
2020/12/24 15:17:11;;;;;;;5.32;1.00;;;;;;;17.66;56.28;101664.94;4811560;29;20109;-77
2020/12/24 15:19:36;;;;;;;3.13;0.70;;;;;;;17.63;56.23;101667.50;4811369;29;20513;-77
2020/12/24 15:22:02;;;;;;;2.85;0.80;;;;;;;17.63;56.38;101683.97;4831628;29;20079;-77
2020/12/24 15:24:27;;;;;;;3.10;0.70;;;;;;;17.62;56.24;101684.00;4835600;29;20393;-77
2020/12/24 15:26:52;;;;;;;3.95;0.82;;;;;;;17.61;56.33;101690.91;4845017;29;22166;-76
2020/12/24 15:29:18;;;;;;;4.00;0.80;;;;;;;17.60;56.25;101690.94;4838773;29;20120;-76
2020/12/24 15:31:43;;;;;;;1.42;0.73;;;;;;;17.61;56.32;101706.53;4829786;29;20044;-76
2020/12/24 15:34:08;;;;;;;3.45;0.80;;;;;;;17.61;55.95;101698.72;4860615;29;20038;-76
2020/12/24 15:36:34;;;;;;;2.45;0.70;;;;;;;17.60;56.10;101698.75;4834021;29;20034;-76
2020/12/24 15:38:59;;;;;;;3.13;0.63;;;;;;;17.60;56.00;101690.94;4829799;29;20042;-76
2020/12/24 15:41:25;;;;;;;4.68;0.75;;;;;;;17.60;56.12;101711.75;4832487;29;20029;-76
2020/12/24 15:43:50;;;;;;;2.78;0.88;;;;;;;17.57;55.84;101698.72;4845565;29;20085;-76
2020/12/24 15:46:15;;;;;;;2.50;0.73;;;;;;;17.59;56.20;101694.38;4861956;29;20180;-77
2020/12/24 15:48:42;;;;;;;3.08;0.70;;;;;;;17.59;56.26;101694.38;4809632;29;20030;-77
2020/12/24 15:51:08;;;;;;;3.13;0.80;;;;;;;17.57;56.18;101701.31;4843343;29;20087;-77
2020/12/24 15:53:35;;;;;;;1.52;0.70;;;;;;;17.57;55.89;101698.72;4829029;29;20499;-77
2020/12/24 15:56:01;;;;;;;4.03;0.80;;;;;;;17.57;56.18;101694.41;4845807;29;20473;-77
2020/12/24 15:58:27;;;;;;;2.80;0.70;;;;;;;17.57;56.42;101694.41;4860867;29;20065;-77
2020/12/24 16:00:52;;;;;;;4.00;0.68;;;;;;;17.57;56.07;101706.50;4829752;29;20492;-77
2020/12/24 16:03:18;;;;;;;4.28;0.90;;;;;;;17.58;56.17;101708.28;4842692;29;20044;-77
2020/12/24 16:05:47;;;;;;;3.28;0.82;;;;;;;17.58;56.02;101714.34;4837078;29;20021;-76
2020/12/24 16:08:14;;;;;;;1.70;0.70;;;;;;;17.58;56.23;101716.94;4843044;29;20041;-76
2020/12/24 16:10:40;;;;;;;1.70;0.60;;;;;;;17.60;55.79;101716.97;4845279;29;20029;-76
2020/12/24 16:13:06;;;;;;;1.80;0.77;;;;;;;17.60;56.06;101722.16;4844784;29;20053;-77
2020/12/24 16:15:31;;;;;;;1.67;0.77;;;;;;;17.60;56.10;101728.22;4845314;29;20075;-76
2020/12/24 16:17:56;;;;;;;2.20;0.77;;;;;;;17.61;55.87;101732.56;4844730;29;20038;-76
2020/12/24 16:20:22;;;;;;;5.82;0.90;;;;;;;17.63;56.05;101722.16;4846139;29;20065;-76
2020/12/24 16:22:47;;;;;;;1.30;0.70;;;;;;;17.62;55.78;101736.06;4845617;29;20044;-76
2020/12/24 16:25:13;;;;;;;3.67;0.95;;;;;;;17.63;55.89;101735.19;4829730;29;20042;-76
2020/12/24 16:27:38;;;;;;;1.90;0.73;;;;;;;17.63;56.06;101743.84;4818522;29;20466;-76
2020/12/24 16:30:04;;;;;;;3.15;0.95;;;;;;;17.63;56.09;101743.84;4857932;29;20037;-76
2020/12/24 16:32:30;;;;;;;2.90;0.93;;;;;;;17.64;56.18;101739.53;4859146;29;20041;-77
2020/12/24 16:34:55;;;;;;;3.38;0.85;;;;;;;17.64;56.08;101748.22;4860843;29;20085;-77
2020/12/24 16:37:21;;;;;;;2.78;0.80;;;;;;;17.65;55.99;101743.88;4825474;29;20181;-77
2020/12/24 16:39:47;;;;;;;2.33;0.80;;;;;;;17.67;56.07;101762.97;4844085;29;20053;-77
2020/12/24 16:42:12;;;;;;;1.40;0.60;;;;;;;17.66;56.42;101761.25;4842723;29;20468;-77
2020/12/24 16:44:38;;;;;;;1.77;0.75;;;;;;;17.67;56.25;101762.97;4843396;29;20057;-76
2020/12/24 16:47:04;;;;;;;1.58;0.77;;;;;;;17.66;56.46;101763.84;4853966;29;20041;-76
2020/12/24 16:49:31;;;;;;;1.90;0.60;;;;;;;17.64;56.37;101766.44;4859768;29;20060;-77
2020/12/24 16:51:57;;;;;;;1.40;0.60;;;;;;;17.62;56.65;101770.75;4837375;29;20534;-78
2020/12/24 16:54:23;;;;;;;2.00;0.70;;;;;;;17.63;56.37;101769.88;4859372;29;20033;-77
2020/12/24 16:56:50;;;;;;;3.22;0.70;;;;;;;17.61;56.60;101769.00;4837091;29;20025;-77
2020/12/24 16:59:16;;;;;;;2.50;1.02;;;;;;;17.59;56.61;101770.72;4838609;29;20030;-77
2020/12/24 17:01:41;;;;;;;1.40;0.68;;;;;;;17.61;56.51;101775.94;4819763;29;20488;-77
2020/12/24 17:04:07;;;;;;;1.50;0.80;;;;;;;17.57;56.63;101772.47;4822010;29;20492;-77
2020/12/24 17:06:32;;;;;;;2.05;0.70;;;;;;;17.57;56.48;101774.19;4827473;29;20033;-77
2020/12/24 17:08:57;;;;;;;3.55;1.00;;;;;;;17.57;56.60;101771.59;4835832;29;20098;-77
2020/12/24 17:11:23;;;;;;;1.95;0.80;;;;;;;17.55;56.57;101773.31;4828387;29;20397;-77
2020/12/24 17:13:49;;;;;;;2.30;0.75;;;;;;;17.54;56.48;101779.38;4828437;29;20025;-77
2020/12/24 17:16:18;;;;;;;2.72;0.82;;;;;;;17.54;56.30;101774.19;4846702;29;20102;-77